Time;durP1;ratioP1;P1;durP2;ratioP2;P2;SDS_P1;SDS_P2;PMS_P1;PMS_P2;Temp;Humidity;BMP_temperature;BMP_pressure;BME280_temperature;BME280_humidity;BME280_pressure;Samples;Min_cycle;Max_cycle;Signal;HPM_P1;HPM_P2
2023/07/20 00:00:15;;;;;;;10.82;4.00;;;20.70;65.80;;;;;;6138319;23;20452;-91
2023/07/20 00:03:19;;;;;;;13.70;4.60;;;20.70;66.90;;;;;;6162779;23;20510;-91
2023/07/20 00:05:46;;;;;;;12.98;5.28;;;20.60;67.50;;;;;;6138180;23;20056;-92
2023/07/20 00:08:13;;;;;;;15.25;4.78;;;20.50;68.30;;;;;;6138229;23;20027;-91
2023/07/20 00:10:41;;;;;;;14.65;5.75;;;20.50;68.50;;;;;;6138863;23;20039;-91
2023/07/20 00:13:09;;;;;;;12.20;5.35;;;20.40;68.80;;;;;;6138056;23;20031;-90
2023/07/20 00:15:37;;;;;;;14.30;5.53;;;20.50;69.30;;;;;;6138183;23;20024;-90
2023/07/20 00:18:05;;;;;;;14.95;5.25;;;20.50;70.50;;;;;;6138254;23;20028;-89
2023/07/20 00:20:32;;;;;;;16.58;5.07;;;20.50;70.10;;;;;;6138476;23;20021;-90
2023/07/20 00:22:59;;;;;;;11.75;5.03;;;20.40;70.30;;;;;;6162559;23;20508;-89
2023/07/20 00:25:27;;;;;;;10.60;4.60;;;20.40;71.90;;;;;;6162687;23;20017;-90
2023/07/20 00:27:54;;;;;;;10.73;4.50;;;20.40;71.10;;;;;;6137419;23;20021;-89
2023/07/20 00:30:21;;;;;;;9.15;4.57;;;20.30;71.90;;;;;;6137046;23;20392;-89
2023/07/20 00:32:48;;;;;;;12.15;6.00;;;20.30;71.80;;;;;;6137388;23;20031;-89
2023/07/20 00:35:15;;;;;;;10.75;5.47;;;20.30;72.70;;;;;;6137253;23;20071;-90
2023/07/20 00:37:42;;;;;;;13.32;5.95;;;20.20;73.30;;;;;;6137650;23;20035;-90
2023/07/20 00:40:09;;;;;;;11.77;5.73;;;20.20;73.60;;;;;;6138608;23;20030;-91
2023/07/20 00:42:37;;;;;;;13.68;6.05;;;20.20;74.10;;;;;;6138513;23;20017;-91
2023/07/20 00:45:04;;;;;;;10.45;5.68;;;20.20;74.00;;;;;;6138240;23;20477;-90
2023/07/20 00:47:32;;;;;;;11.90;4.88;;;20.10;72.60;;;;;;6137973;23;20021;-90
2023/07/20 00:50:00;;;;;;;11.57;5.13;;;20.10;71.70;;;;;;6138190;23;20013;-90
2023/07/20 00:52:28;;;;;;;12.27;5.43;;;20.20;71.60;;;;;;6138035;23;20021;-90
2023/07/20 00:54:56;;;;;;;11.32;5.13;;;20.30;72.60;;;;;;6137526;23;20021;-90
2023/07/20 00:57:25;;;;;;;14.27;5.80;;;20.20;73.60;;;;;;6137928;23;20419;-90
2023/07/20 00:59:53;;;;;;;12.82;5.68;;;20.20;73.50;;;;;;6137973;23;20025;-90
2023/07/20 01:02:20;;;;;;;11.80;5.30;;;20.10;73.40;;;;;;6137813;23;20079;-90
2023/07/20 01:04:48;;;;;;;11.40;5.50;;;20.10;73.50;;;;;;6138400;23;20021;-90
2023/07/20 01:07:43;;;;;;;10.07;4.82;;;20.10;73.20;;;;;;6161704;23;20021;-90
2023/07/20 01:10:31;;;;;;;12.75;5.75;;;20.00;73.20;;;;;;6137248;23;20087;-90
2023/07/20 01:13:00;;;;;;;10.82;5.47;;;20.00;72.60;;;;;;6137148;23;20026;-90
2023/07/20 01:15:27;;;;;;;12.27;5.18;;;20.10;71.80;;;;;;6137930;23;20028;-90
2023/07/20 01:17:54;;;;;;;11.67;5.53;;;20.20;71.70;;;;;;6137938;23;20057;-90
2023/07/20 01:20:23;;;;;;;12.43;5.80;;;20.30;72.30;;;;;;6137928;23;20021;-90
2023/07/20 01:23:14;;;;;;;10.95;5.30;;;20.40;73.20;;;;;;6137517;23;20045;-90
2023/07/20 01:26:20;;;;;;;12.18;5.47;;;20.30;73.00;;;;;;6138107;23;20032;-90
2023/07/20 01:29:23;;;;;;;13.43;5.00;;;20.30;72.50;;;;;;6162429;23;20025;-91
2023/07/20 01:31:53;;;;;;;11.00;4.97;;;20.20;72.50;;;;;;6117132;23;20024;-90
2023/07/20 01:34:23;;;;;;;11.15;4.95;;;20.30;71.80;;;;;;6137566;23;20021;-90
2023/07/20 01:36:52;;;;;;;10.43;5.30;;;20.30;72.00;;;;;;6137811;23;20426;-90
2023/07/20 01:39:20;;;;;;;13.63;5.53;;;20.30;72.10;;;;;;6137066;23;20020;-89
2023/07/20 01:41:48;;;;;;;12.02;5.38;;;20.30;71.80;;;;;;6136002;23;20068;-90
2023/07/20 01:44:15;;;;;;;12.40;5.60;;;20.30;72.00;;;;;;6160821;23;20019;-90
2023/07/20 01:46:42;;;;;;;12.35;5.82;;;20.30;72.30;;;;;;6137486;23;20017;-90
2023/07/20 01:49:09;;;;;;;13.23;6.00;;;20.30;72.80;;;;;;6137723;23;20044;-90
2023/07/20 01:51:36;;;;;;;14.93;5.68;;;20.30;72.50;;;;;;6161879;23;20410;-90
2023/07/20 01:54:03;;;;;;;13.90;5.82;;;20.30;72.00;;;;;;6132445;23;20036;-90
2023/07/20 01:56:30;;;;;;;13.70;5.90;;;20.30;71.50;;;;;;6132601;23;20020;-91
2023/07/20 01:58:57;;;;;;;14.00;5.70;;;20.30;71.00;;;;;;6157144;23;20088;-90
2023/07/20 02:01:24;;;;;;;13.82;5.82;;;20.30;72.10;;;;;;6157153;23;20451;-90
2023/07/20 02:03:51;;;;;;;11.38;4.90;;;20.30;71.90;;;;;;6156748;23;20021;-90
2023/07/20 02:06:18;;;;;;;12.20;5.00;;;20.30;72.30;;;;;;6132608;23;20044;-90
2023/07/20 02:08:48;;;;;;;11.97;4.90;;;20.30;71.70;;;;;;6132761;23;20076;-90
2023/07/20 02:11:15;;;;;;;12.63;5.30;;;20.30;71.60;;;;;;6156782;23;20018;-90
2023/07/20 02:13:42;;;;;;;11.55;4.30;;;20.20;71.80;;;;;;6157116;23;20057;-90
2023/07/20 02:16:11;;;;;;;8.88;3.60;;;20.10;70.40;;;;;;6132211;23;20056;-90
2023/07/20 02:18:38;;;;;;;7.55;3.22;;;20.00;68.30;;;;;;6132518;23;20021;-90
2023/07/20 02:21:07;;;;;;;8.97;4.27;;;20.00;67.40;;;;;;6132490;23;20022;-90
2023/07/20 02:23:34;;;;;;;8.93;4.53;;;20.10;69.50;;;;;;6131420;23;20021;-90
2023/07/20 02:26:01;;;;;;;11.88;4.93;;;20.10;70.30;;;;;;6156832;23;20025;-90
2023/07/20 02:28:28;;;;;;;10.82;4.47;;;20.10;71.00;;;;;;6132485;23;20053;-90
2023/07/20 02:30:55;;;;;;;8.50;3.97;;;20.00;70.50;;;;;;6132473;23;20101;-90
2023/07/20 02:33:23;;;;;;;6.80;2.80;;;19.90;69.40;;;;;;6131742;23;20022;-89
2023/07/20 02:35:50;;;;;;;7.57;3.00;;;19.70;67.40;;;;;;6156359;23;20355;-89
2023/07/20 02:38:17;;;;;;;8.52;3.38;;;19.60;66.80;;;;;;6156137;23;20084;-89
2023/07/20 02:40:44;;;;;;;7.45;3.10;;;19.70;67.90;;;;;;6156017;23;20112;-90
2023/07/20 02:43:11;;;;;;;6.00;2.67;;;19.70;67.10;;;;;;6156482;23;20100;-89
2023/07/20 02:45:44;;;;;;;7.20;2.60;;;19.60;66.30;;;;;;6156290;23;20344;-90
2023/07/20 02:48:14;;;;;;;8.23;2.55;;;19.50;65.60;;;;;;6156098;23;20018;-90
2023/07/20 02:50:41;;;;;;;8.02;2.80;;;19.50;66.10;;;;;;6131351;23;20022;-90
2023/07/20 02:53:08;;;;;;;8.45;2.42;;;19.40;66.30;;;;;;6131298;23;20057;-90
2023/07/20 02:55:35;;;;;;;7.63;2.50;;;19.40;67.20;;;;;;6131899;23;20344;-90
2023/07/20 02:58:02;;;;;;;8.77;2.53;;;19.50;66.70;;;;;;6131598;23;20021;-90
2023/07/20 03:00:29;;;;;;;9.00;2.78;;;19.40;66.30;;;;;;6156373;23;20017;-90
2023/07/20 03:02:57;;;;;;;6.47;2.42;;;19.40;66.90;;;;;;6155938;23;20021;-90
2023/07/20 03:05:25;;;;;;;8.68;2.67;;;19.40;67.30;;;;;;6132157;23;20073;-90
2023/07/20 03:07:52;;;;;;;6.40;2.80;;;19.40;67.80;;;;;;6131850;23;20076;-90
2023/07/20 03:10:19;;;;;;;6.43;2.70;;;19.40;67.20;;;;;;6156401;23;20013;-91
2023/07/20 03:12:46;;;;;;;7.25;2.10;;;19.50;67.40;;;;;;6132180;23;20049;-91
2023/07/20 03:15:13;;;;;;;7.43;1.90;;;19.50;67.50;;;;;;6156209;23;20498;-90
2023/07/20 03:17:41;;;;;;;5.95;1.90;;;19.40;66.60;;;;;;6132166;23;20108;-90
2023/07/20 03:20:09;;;;;;;5.05;1.40;;;19.40;66.80;;;;;;6131889;23;20022;-90
2023/07/20 03:22:36;;;;;;;5.23;1.40;;;19.30;67.70;;;;;;6131708;23;20456;-90
2023/07/20 03:25:04;;;;;;;5.53;1.50;;;19.30;66.40;;;;;;6155765;23;20017;-90
2023/07/20 03:27:31;;;;;;;4.90;1.60;;;19.20;66.90;;;;;;6156015;23;20024;-90
2023/07/20 03:30:00;;;;;;;4.30;1.27;;;19.10;67.20;;;;;;6131965;23;20100;-90
2023/07/20 03:32:27;;;;;;;4.85;1.63;;;19.10;67.90;;;;;;6131557;23;20080;-90
2023/07/20 03:34:54;;;;;;;5.77;1.53;;;19.00;67.60;;;;;;6131421;23;20032;-90
2023/07/20 03:37:22;;;;;;;4.55;1.38;;;19.00;67.80;;;;;;6131766;23;20025;-90
2023/07/20 03:39:49;;;;;;;5.85;1.35;;;18.90;67.70;;;;;;6133040;23;20463;-90
2023/07/20 03:42:16;;;;;;;5.25;1.20;;;18.80;68.00;;;;;;6156369;23;20456;-90
2023/07/20 03:44:43;;;;;;;5.22;1.60;;;18.80;68.20;;;;;;6156649;23;20018;-90
2023/07/20 03:47:10;;;;;;;4.50;1.50;;;18.70;68.70;;;;;;6133027;23;20108;-90
2023/07/20 03:49:37;;;;;;;6.03;1.60;;;18.80;68.90;;;;;;6157580;23;20010;-90
2023/07/20 03:52:05;;;;;;;5.80;1.60;;;18.90;68.80;;;;;;6157411;23;20018;-90
2023/07/20 03:54:32;;;;;;;4.07;1.25;;;18.90;68.70;;;;;;6157403;23;20108;-90
2023/07/20 03:57:00;;;;;;;7.43;1.63;;;19.00;69.20;;;;;;6157678;23;20017;-89
2023/07/20 03:59:27;;;;;;;3.93;1.10;;;19.10;70.10;;;;;;6158009;23;20105;-88
2023/07/20 04:01:55;;;;;;;4.13;1.20;;;19.10;69.80;;;;;;6132943;23;20418;-88
2023/07/20 04:04:22;;;;;;;5.90;1.70;;;19.10;68.50;;;;;;6132939;23;20022;-88
2023/07/20 04:06:49;;;;;;;6.22;1.70;;;19.10;68.30;;;;;;6157617;23;20021;-89
2023/07/20 04:09:16;;;;;;;6.70;1.42;;;19.00;68.40;;;;;;6133206;23;20017;-88
2023/07/20 04:11:43;;;;;;;6.33;1.37;;;19.10;69.20;;;;;;6157233;23;20321;-88
2023/07/20 04:14:10;;;;;;;5.78;1.40;;;19.10;69.50;;;;;;6132961;23;20104;-88
2023/07/20 04:16:38;;;;;;;4.80;1.45;;;19.20;69.30;;;;;;6157206;23;20440;-89
2023/07/20 04:19:05;;;;;;;4.28;1.30;;;19.10;70.10;;;;;;6157161;23;20031;-88
2023/07/20 04:21:32;;;;;;;6.10;1.80;;;19.20;69.50;;;;;;6157145;23;20025;-88
2023/07/20 04:23:59;;;;;;;6.30;1.50;;;19.20;70.00;;;;;;6132662;23;20444;-89
2023/07/20 04:26:26;;;;;;;6.57;1.30;;;19.30;69.70;;;;;;6157414;23;20018;-89
2023/07/20 04:28:53;;;;;;;4.65;1.73;;;19.40;69.60;;;;;;6157212;23;20022;-89
2023/07/20 04:31:40;;;;;;;6.35;1.70;;;19.50;69.40;;;;;;6157052;23;20018;-88
2023/07/20 04:34:08;;;;;;;5.10;1.35;;;19.50;69.10;;;;;;6157152;23;20025;-88
2023/07/20 04:36:36;;;;;;;6.03;1.53;;;19.50;69.30;;;;;;6133647;23;20352;-88
2023/07/20 04:39:06;;;;;;;5.50;1.60;;;19.50;69.20;;;;;;6132930;23;20053;-88
2023/07/20 04:41:48;;;;;;;6.10;1.40;;;19.60;69.30;;;;;;6157367;23;20052;-89
2023/07/20 04:44:16;;;;;;;4.82;1.60;;;19.60;69.30;;;;;;6157183;23;20025;-88
2023/07/20 04:46:43;;;;;;;4.50;1.35;;;19.70;69.30;;;;;;6132864;23;20013;-89
2023/07/20 04:49:13;;;;;;;5.07;1.47;;;19.70;69.00;;;;;;6157048;23;20018;-88
2023/07/20 04:51:42;;;;;;;5.30;1.52;;;19.70;69.20;;;;;;6157079;23;20024;-88
2023/07/20 04:54:10;;;;;;;5.22;1.42;;;19.60;69.00;;;;;;6132717;23;20414;-88
2023/07/20 04:56:37;;;;;;;6.88;1.52;;;19.70;68.50;;;;;;6156873;23;20024;-89
2023/07/20 04:59:07;;;;;;;4.78;1.33;;;19.90;68.00;;;;;;6157231;23;20076;-89
2023/07/20 05:01:34;;;;;;;6.67;1.47;;;20.00;67.40;;;;;;6157288;23;20037;-89
2023/07/20 05:04:02;;;;;;;6.55;1.70;;;19.90;68.10;;;;;;6157113;23;20028;-88
2023/07/20 05:06:29;;;;;;;5.32;1.52;;;20.00;68.10;;;;;;6157249;23;20100;-89
2023/07/20 05:08:57;;;;;;;7.68;1.48;;;19.90;68.20;;;;;;6132719;23;20071;-89
2023/07/20 05:11:24;;;;;;;4.72;1.20;;;20.00;67.90;;;;;;6133087;23;20025;-89
2023/07/20 05:13:51;;;;;;;7.17;1.60;;;20.00;67.00;;;;;;6133102;23;20104;-95
2023/07/20 05:16:19;;;;;;;4.93;1.48;;;20.10;67.30;;;;;;6132963;23;20017;-90
2023/07/20 05:18:46;;;;;;;5.53;1.27;;;20.00;67.00;;;;;;6132712;23;20033;-89
2023/07/20 05:21:13;;;;;;;5.35;1.40;;;20.00;66.60;;;;;;6157112;23;20025;-89
2023/07/20 05:23:41;;;;;;;5.35;1.67;;;20.10;67.20;;;;;;6156891;23;20077;-89
2023/07/20 05:26:09;;;;;;;5.30;1.67;;;20.20;66.60;;;;;;6156972;23;20051;-89
2023/07/20 05:28:36;;;;;;;6.90;1.55;;;20.30;65.50;;;;;;6132631;23;20096;-87
2023/07/20 05:31:03;;;;;;;5.25;1.63;;;20.40;65.30;;;;;;6132468;23;20021;-89
2023/07/20 05:33:30;;;;;;;3.67;1.00;;;20.60;63.60;;;;;;6132550;23;20048;-89
2023/07/20 05:35:57;;;;;;;6.55;1.67;;;20.70;63.20;;;;;;6132645;23;20076;-90
2023/07/20 05:38:25;;;;;;;6.67;1.50;;;20.80;63.50;;;;;;6132753;23;20072;-90
2023/07/20 05:40:52;;;;;;;6.55;1.60;;;21.00;64.20;;;;;;6157132;23;20351;-90
2023/07/20 05:43:19;;;;;;;7.07;1.65;;;21.10;63.40;;;;;;6156842;23;20348;-90
2023/07/20 05:45:47;;;;;;;6.88;1.80;;;21.30;62.30;;;;;;6156998;23;20021;-90
2023/07/20 05:48:16;;;;;;;4.70;1.60;;;21.40;61.40;;;;;;6156806;23;20021;-90
2023/07/20 05:50:43;;;;;;;7.00;1.40;;;21.50;61.10;;;;;;6156816;23;20044;-90
2023/07/20 05:53:11;;;;;;;7.32;1.60;;;21.60;60.60;;;;;;6156865;23;20089;-90
2023/07/20 05:55:39;;;;;;;7.25;1.67;;;21.80;60.10;;;;;;6156803;23;20047;-89
2023/07/20 05:58:06;;;;;;;6.25;1.63;;;21.80;60.30;;;;;;6156884;23;20100;-89
2023/07/20 06:00:33;;;;;;;5.10;1.23;;;21.80;60.60;;;;;;6132483;23;20519;-89
2023/07/20 06:03:00;;;;;;;6.97;1.50;;;21.80;59.80;;;;;;6132527;23;20017;-90
2023/07/20 06:05:29;;;;;;;6.05;1.23;;;21.80;59.90;;;;;;6156813;23;20068;-90
2023/07/20 06:07:57;;;;;;;7.97;1.35;;;21.80;60.90;;;;;;6156718;23;20400;-91
2023/07/20 06:10:24;;;;;;;4.10;1.20;;;21.80;59.70;;;;;;6156101;23;20021;-90
2023/07/20 06:12:51;;;;;;;4.05;1.40;;;21.70;60.80;;;;;;6157560;23;20037;-91
2023/07/20 06:15:33;;;;;;;5.00;1.20;;;21.80;59.50;;;;;;6132480;23;20463;-90
2023/07/20 06:18:00;;;;;;;5.82;1.45;;;21.90;58.90;;;;;;6132403;23;20021;-91
2023/07/20 06:20:30;;;;;;;5.32;1.20;;;21.90;58.80;;;;;;6157029;23;20013;-92
2023/07/20 06:22:57;;;;;;;3.95;1.20;;;21.90;58.20;;;;;;6156625;23;20021;-91
2023/07/20 06:25:24;;;;;;;3.70;1.02;;;22.00;59.70;;;;;;6132894;23;20329;-92
2023/07/20 06:27:51;;;;;;;4.80;1.00;;;22.10;58.10;;;;;;6156679;23;20022;-92
2023/07/20 06:30:19;;;;;;;4.57;1.23;;;22.00;57.90;;;;;;6156832;23;20045;-92
2023/07/20 06:32:46;;;;;;;4.10;1.33;;;22.10;57.50;;;;;;6132397;23;20024;-91
2023/07/20 06:35:15;;;;;;;4.63;1.33;;;22.10;57.60;;;;;;6133010;23;20026;-92
2023/07/20 06:37:42;;;;;;;4.72;1.38;;;22.30;58.00;;;;;;6156795;23;20479;-92
2023/07/20 06:40:09;;;;;;;5.87;1.30;;;22.40;57.30;;;;;;6157130;23;20013;-92
2023/07/20 06:42:39;;;;;;;4.22;1.13;;;22.30;56.50;;;;;;6132938;23;20088;-92
2023/07/20 06:45:10;;;;;;;4.78;1.10;;;22.40;57.20;;;;;;6132443;23;20014;-92
2023/07/20 06:47:41;;;;;;;3.67;1.00;;;22.30;57.20;;;;;;6131759;23;20018;-92
2023/07/20 06:50:09;;;;;;;3.15;0.80;;;22.40;57.90;;;;;;6155873;23;20024;-93
2023/07/20 06:52:43;;;;;;;4.23;1.27;;;22.60;57.00;;;;;;6158289;23;20020;-92
2023/07/20 06:55:10;;;;;;;4.53;1.20;;;22.70;56.40;;;;;;6136508;23;20525;-92
2023/07/20 06:57:37;;;;;;;4.65;1.40;;;22.70;56.00;;;;;;6136773;23;20021;-92
2023/07/20 07:00:06;;;;;;;5.15;1.20;;;22.80;55.60;;;;;;6136163;23;20025;-93
2023/07/20 07:02:34;;;;;;;4.70;1.20;;;22.80;55.60;;;;;;6136877;23;20502;-92
2023/07/20 07:05:02;;;;;;;3.67;1.20;;;22.90;56.30;;;;;;6137267;23;20036;-92
2023/07/20 07:07:46;;;;;;;4.40;1.35;;;23.00;55.10;;;;;;6140683;23;20017;-92
2023/07/20 07:10:14;;;;;;;4.47;1.40;;;23.10;54.90;;;;;;6136944;23;20403;-92
2023/07/20 07:12:41;;;;;;;6.15;1.30;;;23.10;54.30;;;;;;6136633;23;20451;-92
2023/07/20 07:15:10;;;;;;;3.95;1.40;;;23.10;54.90;;;;;;6137308;23;20021;-92
2023/07/20 07:17:38;;;;;;;4.93;1.40;;;23.20;56.30;;;;;;6136945;23;20071;-93
2023/07/20 07:20:07;;;;;;;5.25;1.30;;;23.20;55.40;;;;;;6137100;23;20025;-92
2023/07/20 07:22:37;;;;;;;5.97;1.50;;;23.00;55.60;;;;;;6139465;23;20056;-92
2023/07/20 07:25:05;;;;;;;5.47;1.52;;;23.10;55.50;;;;;;6163060;23;20023;-93
2023/07/20 07:27:32;;;;;;;4.90;1.30;;;23.20;55.20;;;;;;6138926;23;20099;-92
2023/07/20 07:29:59;;;;;;;3.90;1.33;;;23.30;55.50;;;;;;6138508;23;20017;-93
2023/07/20 07:32:26;;;;;;;4.20;1.08;;;23.40;54.90;;;;;;6138737;23;20045;-92
2023/07/20 07:34:53;;;;;;;5.82;1.58;;;23.60;55.60;;;;;;6138907;23;20021;-92
2023/07/20 07:37:23;;;;;;;4.47;1.20;;;23.60;54.70;;;;;;6162024;23;20025;-92
2023/07/20 07:39:50;;;;;;;7.00;1.52;;;23.40;55.90;;;;;;6138481;23;20021;-92
2023/07/20 07:42:18;;;;;;;3.40;1.10;;;23.40;54.70;;;;;;6138364;23;20021;-92
2023/07/20 07:44:45;;;;;;;4.50;1.20;;;23.50;55.40;;;;;;6137718;23;20017;-92
2023/07/20 07:47:12;;;;;;;4.60;1.35;;;23.50;55.70;;;;;;6138751;23;20024;-92
2023/07/20 07:49:39;;;;;;;4.97;1.30;;;23.60;56.70;;;;;;6162898;23;20024;-92
2023/07/20 07:52:07;;;;;;;4.65;1.40;;;23.60;54.60;;;;;;6163204;23;20021;-92
2023/07/20 07:54:34;;;;;;;5.53;1.50;;;23.50;55.90;;;;;;6163131;23;20024;-93
2023/07/20 07:57:01;;;;;;;4.50;1.20;;;23.30;56.80;;;;;;6138714;23;20100;-93
2023/07/20 07:59:31;;;;;;;6.57;1.50;;;23.30;55.90;;;;;;6138978;23;20025;-93
2023/07/20 08:01:58;;;;;;;3.42;1.10;;;23.30;56.40;;;;;;6140713;23;20020;-94
2023/07/20 08:04:25;;;;;;;3.42;1.15;;;23.30;56.10;;;;;;6140021;23;20043;-94
2023/07/20 08:06:53;;;;;;;5.03;1.67;;;23.30;55.60;;;;;;6140863;23;20045;-93
2023/07/20 08:09:20;;;;;;;4.43;1.42;;;23.20;55.40;;;;;;6140336;23;20017;-94
2023/07/20 08:11:48;;;;;;;5.18;1.50;;;23.40;56.10;;;;;;6140182;23;20429;-93
2023/07/20 08:14:15;;;;;;;4.90;1.30;;;23.50;55.40;;;;;;6140294;23;20021;-94
2023/07/20 08:16:43;;;;;;;4.93;1.40;;;23.50;54.60;;;;;;6140405;23;20351;-94
2023/07/20 08:19:10;;;;;;;4.50;1.43;;;23.50;54.80;;;;;;6140436;23;20020;-94
2023/07/20 08:21:37;;;;;;;4.55;1.40;;;23.50;55.10;;;;;;6140323;23;20055;-94
2023/07/20 08:24:05;;;;;;;4.30;1.40;;;23.50;55.80;;;;;;6140422;23;20451;-95
2023/07/20 08:26:32;;;;;;;3.85;1.33;;;23.70;54.80;;;;;;6165084;23;20021;-94
2023/07/20 08:28:59;;;;;;;3.95;1.20;;;23.60;55.00;;;;;;6140018;23;20447;-94
2023/07/20 08:31:28;;;;;;;4.13;1.13;;;23.70;55.20;;;;;;6140918;23;20017;-94
2023/07/20 08:33:56;;;;;;;5.63;1.33;;;23.90;54.50;;;;;;6140834;23;20028;-93
2023/07/20 08:36:24;;;;;;;4.20;1.23;;;24.10;55.10;;;;;;6140910;23;20397;-94
2023/07/20 08:38:51;;;;;;;3.95;1.23;;;24.10;55.80;;;;;;6140623;23;20021;-94
2023/07/20 08:41:19;;;;;;;5.30;1.20;;;24.30;55.40;;;;;;6140044;23;20025;-94
2023/07/20 08:43:47;;;;;;;4.37;1.40;;;24.30;53.60;;;;;;6140161;23;20444;-94
2023/07/20 08:46:15;;;;;;;5.03;1.23;;;24.10;53.40;;;;;;6140112;23;20024;-93
2023/07/20 08:48:44;;;;;;;5.05;1.30;;;24.10;54.10;;;;;;6140464;23;20466;-94
2023/07/20 08:51:12;;;;;;;4.47;1.23;;;24.00;53.90;;;;;;6139699;23;20021;-94
2023/07/20 08:53:40;;;;;;;5.88;1.60;;;24.10;53.50;;;;;;6139169;23;20025;-94
2023/07/20 08:56:10;;;;;;;4.97;1.30;;;24.30;54.70;;;;;;6139751;23;20081;-95
2023/07/20 08:58:42;;;;;;;5.25;1.33;;;24.50;55.10;;;;;;6140276;23;20021;-94
2023/07/20 09:01:11;;;;;;;6.40;1.40;;;24.40;53.90;;;;;;6140026;23;20348;-93
2023/07/20 09:03:43;;;;;;;5.60;1.30;;;24.40;53.80;;;;;;6139870;23;20107;-94
2023/07/20 09:06:10;;;;;;;4.70;1.50;;;24.60;55.30;;;;;;6139698;23;20020;-93
2023/07/20 09:08:41;;;;;;;4.00;1.20;;;24.70;52.70;;;;;;6140291;23;20021;-93
2023/07/20 09:11:14;;;;;;;6.00;1.50;;;24.60;52.80;;;;;;6140951;23;20017;-94
2023/07/20 09:13:41;;;;;;;5.20;1.50;;;24.40;53.90;;;;;;6140361;23;20017;-95
2023/07/20 09:16:13;;;;;;;5.20;1.50;;;24.60;53.80;;;;;;6139895;23;20013;-94
2023/07/20 09:18:41;;;;;;;5.15;1.50;;;24.70;52.40;;;;;;6165548;23;20044;-94
2023/07/20 09:21:09;;;;;;;4.53;1.37;;;24.60;52.60;;;;;;6140528;23;20021;-94
2023/07/20 09:23:39;;;;;;;4.63;1.65;;;24.70;52.80;;;;;;6139972;23;20101;-94
2023/07/20 09:26:12;;;;;;;4.45;1.50;;;24.80;52.70;;;;;;6140106;23;20021;-93
2023/07/20 09:28:54;;;;;;;4.47;1.30;;;24.80;54.00;;;;;;6140224;23;20028;-94
2023/07/20 09:31:22;;;;;;;5.03;1.65;;;25.00;54.60;;;;;;6140462;23;20017;-93
2023/07/20 09:33:53;;;;;;;5.53;1.53;;;25.10;52.20;;;;;;6139930;23;20021;-93
2023/07/20 09:36:23;;;;;;;4.93;1.50;;;25.30;53.10;;;;;;6141079;23;20025;-94
2023/07/20 09:39:12;;;;;;;7.18;1.70;;;25.10;51.10;;;;;;6143915;23;20025;-93
2023/07/20 09:45:59;;;;;;;4.32;1.73;;;25.00;51.10;;;;;;6190035;23;20533;-94
2023/07/20 09:48:27;;;;;;;4.57;1.37;;;25.30;50.90;;;;;;6139351;23;20033;-94
2023/07/20 09:50:57;;;;;;;5.53;2.00;;;25.60;50.60;;;;;;6139818;23;20465;-94
2023/07/20 09:53:25;;;;;;;7.45;2.22;;;25.60;51.00;;;;;;6139360;23;20344;-93
2023/07/20 09:55:53;;;;;;;8.40;1.98;;;25.40;51.20;;;;;;6139282;23;20021;-93
2023/07/20 09:58:22;;;;;;;6.55;2.13;;;25.30;52.70;;;;;;6139439;23;20041;-94
2023/07/20 10:00:51;;;;;;;5.47;1.80;;;25.00;50.80;;;;;;6138833;23;20021;-94
2023/07/20 10:03:28;;;;;;;6.07;2.30;;;25.00;52.30;;;;;;6138050;23;20031;-93
2023/07/20 10:06:06;;;;;;;7.53;2.20;;;24.90;50.90;;;;;;6137929;23;20092;-93
2023/07/20 10:08:39;;;;;;;6.40;2.35;;;24.80;52.10;;;;;;6137600;23;20325;-94
2023/07/20 10:11:12;;;;;;;6.55;2.25;;;24.80;51.90;;;;;;6138195;23;20013;-93
2023/07/20 10:13:43;;;;;;;6.10;1.90;;;24.60;51.60;;;;;;6137410;23;20346;-92
2023/07/20 10:16:17;;;;;;;5.63;2.10;;;24.60;52.10;;;;;;6137924;23;20019;-93
2023/07/20 10:19:33;;;;;;;9.45;2.20;;;24.60;51.60;;;;;;6137461;23;20025;-93
2023/07/20 10:22:24;;;;;;;6.40;2.45;;;24.50;52.70;;;;;;6131263;23;20348;-93
2023/07/20 10:24:58;;;;;;;6.18;1.88;;;24.90;53.10;;;;;;6137131;23;20017;-93
2023/07/20 10:27:28;;;;;;;7.77;2.30;;;25.40;49.00;;;;;;6137721;23;20017;-93
2023/07/20 10:30:15;;;;;;;6.70;2.00;;;25.90;49.20;;;;;;6166220;23;20028;-93
2023/07/20 10:32:43;;;;;;;5.90;2.20;;;25.90;50.10;;;;;;6137455;23;20021;-93
2023/07/20 10:35:15;;;;;;;7.15;2.35;;;26.00;48.80;;;;;;6137235;23;20104;-93
2023/07/20 10:37:50;;;;;;;5.95;2.10;;;26.00;49.60;;;;;;6137792;23;20021;-94
2023/07/20 10:40:39;;;;;;;6.87;2.30;;;26.30;48.60;;;;;;6141025;23;20439;-93
2023/07/20 10:43:10;;;;;;;6.70;2.28;;;26.20;48.90;;;;;;6137268;23;20020;-93
2023/07/20 10:45:49;;;;;;;6.93;2.20;;;25.70;50.60;;;;;;6137197;23;20021;-93
2023/07/20 10:48:23;;;;;;;4.80;1.75;;;25.10;51.70;;;;;;6137493;23;20017;-95
2023/07/20 10:51:09;;;;;;;5.53;1.80;;;24.70;51.70;;;;;;6137396;23;20075;-94
2023/07/20 10:53:36;;;;;;;7.37;1.90;;;24.40;52.50;;;;;;6137260;23;20031;-94
2023/07/20 10:56:15;;;;;;;6.53;1.73;;;24.10;53.80;;;;;;6138327;23;20020;-94
2023/07/20 10:58:42;;;;;;;5.57;2.13;;;24.00;53.60;;;;;;6139350;23;20443;-94
2023/07/20 11:01:13;;;;;;;5.85;1.80;;;24.00;54.70;;;;;;6139387;23;20021;-94
2023/07/20 11:03:50;;;;;;;5.55;1.90;;;24.00;55.00;;;;;;6139708;23;20021;-94
2023/07/20 11:06:25;;;;;;;5.90;1.70;;;24.10;54.40;;;;;;6139828;23;20018;-94
2023/07/20 11:09:06;;;;;;;5.63;1.42;;;23.90;54.10;;;;;;6139387;23;20021;-94
2023/07/20 11:11:39;;;;;;;6.63;1.83;;;23.70;53.80;;;;;;6139669;23;20028;-94
2023/07/20 11:14:08;;;;;;;8.23;1.95;;;23.80;54.90;;;;;;6139198;23;20356;-93
2023/07/20 11:16:43;;;;;;;5.85;1.80;;;23.80;55.80;;;;;;6163403;23;20535;-94
2023/07/20 11:19:18;;;;;;;7.37;1.87;;;23.80;55.80;;;;;;6138936;23;20031;-94
2023/07/20 11:21:51;;;;;;;5.07;2.05;;;23.90;60.50;;;;;;6139361;23;20021;-94
2023/07/20 11:24:30;;;;;;;7.50;2.10;;;24.00;61.40;;;;;;6141259;23;20024;-94
2023/07/20 11:26:57;;;;;;;5.22;2.00;;;24.40;59.20;;;;;;6139080;23;20107;-94
2023/07/20 11:29:26;;;;;;;6.78;2.10;;;24.70;55.60;;;;;;6139115;23;20028;-93
2023/07/20 11:32:03;;;;;;;5.03;1.63;;;24.90;57.30;;;;;;6163262;23;20071;-93
2023/07/20 11:34:33;;;;;;;6.25;2.13;;;24.70;55.40;;;;;;6139006;23;20020;-94
2023/07/20 11:37:01;;;;;;;5.82;1.83;;;24.70;55.90;;;;;;6138720;23;20024;-94
2023/07/20 11:39:31;;;;;;;7.60;1.92;;;24.90;55.30;;;;;;6139671;23;20021;-94
2023/07/20 11:41:58;;;;;;;6.05;2.13;;;25.20;55.00;;;;;;6138744;23;20032;-93
2023/07/20 11:44:29;;;;;;;5.57;1.90;;;25.40;52.70;;;;;;6138213;23;20024;-93
2023/07/20 11:47:08;;;;;;;6.95;2.10;;;25.50;53.20;;;;;;6138746;23;20056;-93
2023/07/20 11:49:39;;;;;;;8.20;2.30;;;25.20;52.00;;;;;;6162776;23;20017;-89
2023/07/20 11:52:08;;;;;;;6.10;2.60;;;24.90;53.30;;;;;;6137733;23;20351;-93
2023/07/20 11:54:39;;;;;;;5.38;2.90;;;24.80;54.10;;;;;;6140028;23;20104;-89
2023/07/20 11:57:18;;;;;;;5.17;2.10;;;24.60;53.90;;;;;;6162309;23;20029;-90
2023/07/20 11:59:57;;;;;;;5.75;2.30;;;24.40;54.40;;;;;;6162006;23;20069;-90
2023/07/20 12:02:27;;;;;;;6.95;2.97;;;24.60;55.30;;;;;;6137941;23;20044;-91
2023/07/20 12:04:55;;;;;;;4.07;1.40;;;24.70;53.00;;;;;;6137482;23;20021;-90
2023/07/20 12:07:26;;;;;;;5.25;1.42;;;24.80;52.00;;;;;;6137972;23;20029;-91
2023/07/20 12:10:07;;;;;;;5.00;1.37;;;25.00;51.40;;;;;;6137655;23;20031;-91
2023/07/20 12:12:39;;;;;;;3.45;1.10;;;25.00;49.30;;;;;;6136997;23;20020;-90
2023/07/20 12:15:16;;;;;;;4.45;1.30;;;25.10;48.30;;;;;;6137774;23;20041;-91
2023/07/20 12:17:44;;;;;;;4.03;1.27;;;25.50;48.50;;;;;;6137705;23;20025;-91
2023/07/20 12:20:12;;;;;;;4.25;1.55;;;25.60;48.00;;;;;;6137434;23;20075;-91
2023/07/20 12:22:41;;;;;;;3.97;1.30;;;25.80;48.10;;;;;;6136364;23;20017;-91
2023/07/20 12:25:08;;;;;;;4.00;1.30;;;25.60;48.40;;;;;;6136673;23;20021;-91
2023/07/20 12:27:37;;;;;;;4.28;1.48;;;25.80;50.50;;;;;;6161047;23;20021;-90
2023/07/20 12:30:08;;;;;;;5.55;1.42;;;25.80;46.80;;;;;;6137144;23;20444;-91
2023/07/20 12:32:35;;;;;;;4.38;1.17;;;25.70;47.30;;;;;;6136798;23;20463;-91
2023/07/20 12:35:02;;;;;;;4.97;1.27;;;26.00;45.70;;;;;;6137145;23;20360;-90
2023/07/20 12:37:29;;;;;;;3.72;1.30;;;26.10;47.20;;;;;;6137112;23;20356;-91
2023/07/20 12:39:56;;;;;;;3.50;1.20;;;26.00;46.60;;;;;;6136883;23;20025;-91
2023/07/20 12:42:23;;;;;;;4.68;1.50;;;26.00;46.80;;;;;;6136963;23;20459;-90
2023/07/20 12:44:50;;;;;;;5.65;1.52;;;26.10;48.00;;;;;;6161456;23;20021;-91
2023/07/20 12:47:18;;;;;;;5.13;1.50;;;26.30;46.90;;;;;;6161848;23;20024;-91
2023/07/20 12:49:46;;;;;;;4.53;1.30;;;26.50;47.60;;;;;;6137561;23;20021;-90
2023/07/20 12:52:13;;;;;;;3.47;1.30;;;26.70;46.50;;;;;;6137471;23;20103;-92
2023/07/20 12:54:40;;;;;;;5.13;1.40;;;26.70;46.20;;;;;;6137226;23;20029;-91
2023/07/20 12:57:08;;;;;;;6.03;1.63;;;26.50;44.00;;;;;;6137207;23;20020;-92
2023/07/20 12:59:37;;;;;;;4.50;1.50;;;26.40;44.60;;;;;;6137928;23;20021;-91
2023/07/20 13:02:05;;;;;;;4.85;1.40;;;26.30;45.30;;;;;;6137247;23;20387;-91